Airfield :
LOGIN :

Register | Disclaimer

   EN    FR    IT 

 










Legend :    VFR   Marginal VFR   IFR   Intensive IFR   Very Intensive IFR
Visi :
Ceiling :
>= 8 km
>= 3000ft
5 to 8 km
1000 to 3000 ft
1500m to 5 km
500 to 1000 ft
800 to 1500m
200 to 500 ft
< 800m
< 200 ft
Symbols :   Thunderstorms  Fog  Heavy snow  Heavy precipitations  Wind > 20 kt
SIGMETs :     Misc.  Thunderstorms  Icing  Turbulence  Mountain Waves  Volcanic Ashes







- Airport Elevation : 436 ft
- IATA code : BTS


LZIB - Bratislava

CURRENT METAR :
  • 262200Z 29011KT CAVOK 08/M02 Q1025

EXPIRED METARs :
  • 262130Z 29008KT CAVOK 08/M02 Q1025
  • 262100Z 31012KT CAVOK 08/M03 Q1025
  • 262030Z 31013KT CAVOK 08/M03 Q1024
  • 262000Z 31013KT 270V330 CAVOK 08/M04 Q1024
  • 261930Z 30014KT CAVOK 08/M04 Q1024

TAF TAF LZIB
Valid from the 26 at 18:00 until the 27 at 18:00 UTC


261700Z 2618/2718 32013KT CAVOK
PROB40
TEMPO 2618/2619 33015G25KT
BECMG 2620/2622 9999 BKN035
PROB30
TEMPO 2701/2704 -SHRA BKN025
BECMG 2709/2711 FEW050
No reported NOTAMs for that airfield.



MET'MAP, your aeronautical weather chart ! - Copyright ORBIFLY December 2007 - Disclaimer

ORBIFLY MET'MAP TEAM :

Programming & Development : Alexandra Zaïnal
Concept & Development : Baudouin d'Aumeries
Co-Development & Prog : Marc-Olivier Méhu
Technical & hardware support : Manuel Goepfert

Contact : metmap@orbifly.com




SOURCES & CREDITS :

   NOAA